Terminal Aerodrome Forecast
Issued by NWS

Home | Current Version | Previous Version | Text Only | Print | Product List | Glossary On
Versions: 1 2 3 4 5 6 7 8 9 10 11 12 13 14 15
000
FTAK31 PAJN 180500
TAFASI
TAF
PASI 180538Z 1806/1906 10012G20KT P6SM VCSH BKN070 OVC100
     FM180900 10012G22KT P6SM -SHRA SCT040 OVC060
     FM181300 10013G23KT P6SM -SHRA SCT020 OVC040
     FM181500 10016G25KT P6SM -SHRA SCT020 OVC040
     FM181900 10015G30KT 5SM -RA BR BKN030 OVC040 WS020/14035KT
     FM190000 10015G25KT 3SM -RA BR BKN015 OVC030 WS020/14035KT=

USA.gov is the U.S. government's official web portal to all federal, state and local government web resources and services.